Time;durP1;ratioP1;P1;durP2;ratioP2;P2;SDS_P1;SDS_P2;PMS_P1;PMS_P2;Temp;Humidity;BMP_temperature;BMP_pressure;BME280_temperature;BME280_humidity;BME280_pressure;Samples;Min_cycle;Max_cycle;Signal;HPM_P1;HPM_P2
2023/10/02 00:05:05;;;;;;;7.28;3.75;;;24.90;79.30;;;;;;10491765;28;20054;-35
2023/10/02 00:10:07;;;;;;;7.70;4.07;;;24.90;79.40;;;;;;10490808;28;20409;-38
2023/10/02 00:15:13;;;;;;;7.28;3.95;;;24.90;79.40;;;;;;10491099;28;20145;-32
2023/10/02 00:20:21;;;;;;;10.10;4.40;;;24.90;79.50;;;;;;10501839;28;20044;-36
2023/10/02 00:25:27;;;;;;;9.63;3.80;;;24.80;79.70;;;;;;10486546;28;20452;-41
2023/10/02 00:30:36;;;;;;;7.60;3.90;;;24.80;79.50;;;;;;10487096;28;20044;-32
2023/10/02 00:35:50;;;;;;;9.25;3.83;;;24.80;79.70;;;;;;10484025;28;20070;-41
2023/10/02 00:40:52;;;;;;;5.95;3.65;;;24.80;79.70;;;;;;10486056;28;20044;-45
2023/10/02 00:45:59;;;;;;;;;;;24.80;79.70;;;;;;10486740;28;20102;-40
2023/10/02 00:51:06;;;;;;;8.15;4.00;;;24.80;79.70;;;;;;10485253;28;19928;-33
2023/10/02 00:56:19;;;;;;;7.05;3.80;;;24.70;79.80;;;;;;10485347;28;20049;-41
2023/10/02 01:01:23;;;;;;;7.93;3.97;;;24.70;79.80;;;;;;10488832;28;20060;-32
2023/10/02 01:06:24;;;;;;;6.85;3.42;;;24.70;80.40;;;;;;10494032;28;20052;-33
2023/10/02 01:11:27;;;;;;;8.98;3.92;;;24.70;80.00;;;;;;10484625;28;20553;-35
2023/10/02 01:16:36;;;;;;;7.90;4.15;;;24.70;80.00;;;;;;10496713;28;20071;-38
2023/10/02 01:21:40;;;;;;;7.47;3.75;;;24.60;80.30;;;;;;10491427;28;20036;-36
2023/10/02 01:26:50;;;;;;;9.85;4.50;;;24.60;80.60;;;;;;10491327;28;20037;-34
2023/10/02 01:31:53;;;;;;;7.50;4.00;;;24.60;80.50;;;;;;10488960;28;20056;-37
2023/10/02 01:36:55;;;;;;;7.38;4.05;;;24.50;80.70;;;;;;10492618;28;20044;-31
2023/10/02 01:42:00;;;;;;;7.95;4.00;;;24.60;80.50;;;;;;10494647;28;20060;-41
2023/10/02 01:47:04;;;;;;;7.15;3.70;;;24.50;81.10;;;;;;10483614;28;20200;-41
2023/10/02 01:52:11;;;;;;;6.35;3.60;;;24.50;80.70;;;;;;10483354;28;20071;-31
2023/10/02 01:57:24;;;;;;;10.63;4.07;;;24.50;80.70;;;;;;10483833;28;20055;-33
2023/10/02 02:02:26;;;;;;;7.82;4.35;;;24.50;80.60;;;;;;10474120;28;20079;-31
2023/10/02 02:07:29;;;;;;;7.43;3.60;;;24.50;80.70;;;;;;10491526;28;20166;-45
2023/10/02 02:12:44;;;;;;;6.70;3.58;;;24.50;80.70;;;;;;10492960;28;20532;-36
2023/10/02 02:17:46;;;;;;;8.60;3.88;;;24.50;80.80;;;;;;10469954;28;20053;-36
2023/10/02 02:22:48;;;;;;;8.10;3.97;;;24.50;80.70;;;;;;10479917;28;20135;-36
2023/10/02 02:27:51;;;;;;;;;;;24.50;80.60;;;;;;10499587;28;20041;-32
2023/10/02 02:32:54;;;;;;;6.65;3.53;;;24.50;80.80;;;;;;10486415;28;20383;-40
2023/10/02 02:37:56;;;;;;;6.53;3.60;;;24.50;80.80;;;;;;10484072;28;20473;-31
2023/10/02 02:43:12;;;;;;;8.15;3.78;;;24.50;80.90;;;;;;10486185;28;20056;-38
2023/10/02 02:48:16;;;;;;;8.07;4.55;;;24.50;80.90;;;;;;10487110;28;20464;-36
2023/10/02 02:53:21;;;;;;;7.28;3.78;;;24.50;80.90;;;;;;10484892;28;20044;-34
2023/10/02 03:15:46;;;;;;;8.35;3.58;;;24.30;81.60;;;;;;10555349;27;20464;-36
2023/10/02 03:20:49;;;;;;;8.07;3.95;;;24.30;81.70;;;;;;10553834;28;20099;-34
2023/10/02 03:25:55;;;;;;;8.55;3.55;;;24.30;81.50;;;;;;10546884;28;20054;-33
2023/10/02 03:30:59;;;;;;;8.38;3.92;;;24.30;81.50;;;;;;10557752;28;20056;-32
2023/10/02 03:36:08;;;;;;;7.78;3.78;;;24.30;81.60;;;;;;10566018;28;20104;-38
2023/10/02 03:41:13;;;;;;;7.72;3.72;;;24.30;81.50;;;;;;10551039;28;20055;-31
2023/10/02 03:46:22;;;;;;;7.50;4.22;;;24.30;81.40;;;;;;10563549;28;20139;-33
2023/10/02 03:51:36;;;;;;;7.50;3.55;;;24.30;81.40;;;;;;10544880;28;20504;-40
2023/10/02 03:56:42;;;;;;;8.68;3.90;;;24.30;81.20;;;;;;10558991;28;20083;-39
2023/10/02 04:01:47;;;;;;;6.68;3.13;;;24.30;81.30;;;;;;10562798;28;20076;-30
2023/10/02 04:06:53;;;;;;;8.45;4.10;;;24.30;81.40;;;;;;10549335;28;20059;-38
2023/10/02 04:11:55;;;;;;;8.90;4.07;;;24.30;81.50;;;;;;10552584;28;20519;-40
2023/10/02 04:17:09;;;;;;;6.57;3.78;;;24.30;81.50;;;;;;10562213;27;20075;-37
2023/10/02 04:22:19;;;;;;;7.53;4.15;;;24.30;81.50;;;;;;10556852;28;20152;-36
2023/10/02 04:28:00;;;;;;;6.68;3.53;;;24.30;81.50;;;;;;10532279;28;20048;-35
2023/10/02 04:32:52;;;;;;;5.68;3.25;;;24.20;81.50;;;;;;10528381;28;20138;-33
2023/10/02 04:37:57;;;;;;;6.38;3.72;;;24.20;81.50;;;;;;10530719;28;20055;-34
2023/10/02 04:43:14;;;;;;;7.35;3.72;;;24.20;81.70;;;;;;10529078;28;20400;-34
2023/10/02 04:48:25;;;;;;;6.75;3.55;;;24.20;81.60;;;;;;10530043;28;20177;-37
2023/10/02 04:53:28;;;;;;;6.80;3.70;;;24.20;81.80;;;;;;10524529;28;20079;-33
2023/10/02 04:58:30;;;;;;;6.57;3.78;;;24.20;81.70;;;;;;10518792;28;20102;-35
2023/10/02 05:03:36;;;;;;;8.52;3.97;;;24.10;81.80;;;;;;10517317;28;20072;-34
2023/10/02 05:08:40;;;;;;;7.28;3.78;;;24.10;82.30;;;;;;10526597;28;20663;-40
2023/10/02 05:13:59;;;;;;;5.60;3.72;;;24.20;81.80;;;;;;10524195;28;20059;-31
2023/10/02 05:19:04;;;;;;;7.00;3.80;;;24.20;81.80;;;;;;10526265;28;20094;-37
2023/10/02 05:24:07;;;;;;;6.75;3.70;;;24.20;81.70;;;;;;10515340;28;20703;-31
2023/10/02 05:29:12;;;;;;;7.25;3.80;;;24.20;81.80;;;;;;10512329;28;20089;-36
2023/10/02 05:34:21;;;;;;;8.80;3.83;;;24.20;81.90;;;;;;10515361;28;20478;-33
2023/10/02 05:39:31;;;;;;;6.53;3.63;;;24.20;82.10;;;;;;10521663;28;20054;-38
2023/10/02 05:44:34;;;;;;;7.50;4.00;;;24.20;82.30;;;;;;10517116;28;20049;-43
2023/10/02 05:49:43;;;;;;;9.93;5.05;;;24.20;82.60;;;;;;10526527;28;20048;-32
2023/10/02 05:54:53;;;;;;;10.70;4.68;;;24.20;82.80;;;;;;10505250;28;20078;-35
2023/10/02 05:59:57;;;;;;;9.32;4.38;;;24.20;83.00;;;;;;10529669;28;20055;-39
2023/10/02 06:05:11;;;;;;;11.48;4.90;;;24.10;83.00;;;;;;10537340;28;20090;-34
2023/10/02 06:10:26;;;;;;;10.43;4.35;;;24.20;83.10;;;;;;10525187;28;20135;-36
2023/10/02 06:20:58;;;;;;;10.48;5.25;;;24.10;83.40;;;;;;10522144;28;20139;-29
2023/10/02 06:25:59;;;;;;;12.52;5.30;;;24.20;83.20;;;;;;10520289;28;20532;-30
2023/10/02 06:31:01;;;;;;;15.82;5.75;;;24.20;83.30;;;;;;10525727;28;20075;-43
2023/10/02 06:36:07;;;;;;;17.55;5.07;;;24.10;83.40;;;;;;10525966;28;20063;-32
2023/10/02 06:41:12;;;;;;;10.85;5.13;;;24.20;83.40;;;;;;10518012;28;20072;-44
2023/10/02 06:46:16;;;;;;;11.20;5.45;;;24.20;83.30;;;;;;10522579;28;20046;-38
2023/10/02 06:51:20;;;;;;;14.05;5.88;;;24.20;83.30;;;;;;10540293;28;20476;-37
2023/10/02 06:56:22;;;;;;;12.23;5.25;;;24.20;83.40;;;;;;10516910;28;20116;-35
2023/10/02 07:01:27;;;;;;;19.45;5.18;;;24.20;83.20;;;;;;10522006;28;20435;-35
2023/10/02 07:06:30;;;;;;;12.63;6.22;;;24.20;83.20;;;;;;10532368;28;20056;-33
2023/10/02 07:11:35;;;;;;;13.13;5.90;;;24.20;83.10;;;;;;10523357;28;20501;-32
2023/10/02 07:16:37;;;;;;;10.85;5.38;;;24.20;83.10;;;;;;10523949;28;20052;-35
2023/10/02 07:21:41;;;;;;;11.70;5.40;;;24.20;83.20;;;;;;10533668;28;20085;-31
2023/10/02 07:26:51;;;;;;;13.25;6.32;;;24.20;83.20;;;;;;10526187;28;20055;-38
2023/10/02 07:31:53;;;;;;;13.48;5.65;;;24.20;83.40;;;;;;10525605;28;20473;-38
2023/10/02 07:36:57;;;;;;;14.75;5.75;;;24.20;83.30;;;;;;10519057;28;20103;-35
2023/10/02 07:42:00;;;;;;;12.23;5.78;;;24.20;83.10;;;;;;10527902;28;20468;-31
2023/10/02 07:47:08;;;;;;;21.90;11.45;;;24.20;83.10;;;;;;10526433;28;20696;-40
2023/10/02 07:52:11;;;;;;;17.85;5.57;;;24.00;86.20;;;;;;10532700;28;20044;-37
2023/10/02 07:57:14;;;;;;;11.45;5.00;;;24.00;84.70;;;;;;10524144;28;20071;-40
2023/10/02 08:02:23;;;;;;;14.82;6.07;;;24.20;83.70;;;;;;10543251;28;20127;-33
2023/10/02 08:07:26;;;;;;;14.32;5.70;;;24.20;83.50;;;;;;10529902;28;20468;-32
2023/10/02 08:12:34;;;;;;;11.70;4.85;;;24.30;83.30;;;;;;10523369;28;20076;-37
2023/10/02 08:22:57;;;;;;;13.57;5.63;;;24.30;83.20;;;;;;10534050;28;20060;-33
2023/10/02 08:27:59;;;;;;;13.18;5.20;;;24.30;83.10;;;;;;10543665;28;20437;-37
2023/10/02 08:33:06;;;;;;;15.25;5.10;;;24.20;83.80;;;;;;10537163;28;20059;-36
2023/10/02 08:38:21;;;;;;;18.20;8.32;;;24.10;84.60;;;;;;10521372;28;20513;-38
2023/10/02 08:43:23;;;;;;;18.23;7.45;;;24.10;85.90;;;;;;10524095;28;20064;-39
2023/10/02 08:48:26;;;;;;;;;;;24.00;86.50;;;;;;10525765;28;20472;-32
2023/10/02 08:53:29;;;;;;;12.70;5.65;;;24.00;85.50;;;;;;10529568;28;20011;-39
2023/10/02 08:58:31;;;;;;;28.63;14.18;;;24.30;84.40;;;;;;10525486;28;20076;-31
2023/10/02 09:03:41;;;;;;;13.50;5.80;;;24.10;91.10;;;;;;10527152;28;20044;-32
2023/10/02 09:14:12;;;;;;;15.07;4.68;;;23.80;89.60;;;;;;10513865;28;20112;-35
2023/10/02 09:19:31;;;;;;;13.20;5.13;;;24.20;86.30;;;;;;10519216;28;20083;-37
2023/10/02 09:24:35;;;;;;;14.02;5.05;;;24.40;84.70;;;;;;10532830;28;20386;-36
2023/10/02 09:29:37;;;;;;;21.95;9.48;;;24.50;83.60;;;;;;10528480;28;20079;-31
2023/10/02 09:35:08;;;;;;;12.25;5.47;;;24.00;92.20;;;;;;10527629;28;20399;-31
2023/10/02 09:40:14;;;;;;;12.57;5.35;;;24.30;86.40;;;;;;10544961;28;20104;-36
2023/10/02 09:45:17;;;;;;;15.95;7.05;;;24.20;87.20;;;;;;10529225;28;20071;-34
2023/10/02 09:50:25;;;;;;;12.48;5.07;;;24.00;88.40;;;;;;10527533;28;20108;-40
2023/10/02 09:55:44;;;;;;;12.43;5.03;;;23.70;90.30;;;;;;10531740;28;20099;-33
2023/10/02 10:01:14;;;;;;;20.15;9.77;;;24.30;85.90;;;;;;10530351;28;20054;-38
2023/10/02 10:06:27;;;;;;;15.75;5.28;;;23.60;93.00;;;;;;10510541;28;20036;-30
2023/10/02 10:11:34;;;;;;;10.98;4.65;;;24.10;88.80;;;;;;10541073;28;20043;-31
2023/10/02 10:16:36;;;;;;;10.90;5.15;;;24.20;88.20;;;;;;10526186;28;20067;-32
2023/10/02 10:21:55;;;;;;;17.40;8.18;;;24.20;88.40;;;;;;10526922;28;20052;-31
2023/10/02 10:26:58;;;;;;;16.42;6.35;;;23.40;96.60;;;;;;10517789;28;20048;-32
2023/10/02 10:32:16;;;;;;;21.45;8.70;;;23.20;95.70;;;;;;10523031;28;20059;-51
2023/10/02 10:37:46;;;;;;;18.30;7.65;;;23.70;92.30;;;;;;10534537;28;20044;-42
2023/10/02 10:43:00;;;;;;;18.90;7.25;;;24.30;93.20;;;;;;10529936;28;20055;-43
2023/10/02 10:48:02;;;;;;;17.90;6.22;;;23.90;94.40;;;;;;10512650;28;20505;-32
2023/10/02 10:58:33;;;;;;;13.45;4.95;;;24.70;86.00;;;;;;10521577;28;20044;-34
2023/10/02 11:03:38;;;;;;;9.38;4.55;;;24.50;90.70;;;;;;10527584;28;20056;-30
2023/10/02 11:08:40;;;;;;;8.95;4.07;;;23.60;93.30;;;;;;10527178;28;20040;-29
2023/10/02 11:13:54;;;;;;;8.73;3.53;;;23.70;92.80;;;;;;10522493;28;20125;-33
2023/10/02 11:19:21;;;;;;;18.42;9.00;;;24.40;92.60;;;;;;10519540;28;20094;-32
2023/10/02 11:24:23;;;;;;;12.55;5.18;;;23.80;95.90;;;;;;10521805;28;20106;-35
2023/10/02 11:29:26;;;;;;;11.43;4.05;;;23.40;96.70;;;;;;10530387;28;20046;-33
2023/10/02 11:34:28;;;;;;;8.40;4.25;;;23.70;93.40;;;;;;10528560;28;20051;-41
2023/10/02 11:39:33;;;;;;;8.23;4.60;;;24.00;92.40;;;;;;10522454;28;20040;-44
2023/10/02 11:44:39;;;;;;;12.70;4.50;;;24.50;91.10;;;;;;10525094;28;20059;-37
2023/10/02 11:49:42;;;;;;;8.10;4.03;;;24.70;89.20;;;;;;10532490;28;20144;-32
2023/10/02 11:54:44;;;;;;;9.10;4.03;;;25.00;86.50;;;;;;10523396;28;20496;-32
2023/10/02 11:59:47;;;;;;;;;;;25.10;85.40;;;;;;10520104;28;20047;-39
2023/10/02 12:04:52;;;;;;;7.60;3.42;;;25.20;84.60;;;;;;10530246;28;19920;-40
2023/10/02 12:09:54;;;;;;;5.25;3.17;;;25.50;83.00;;;;;;10518142;28;20087;-34
2023/10/02 12:14:57;;;;;;;12.68;4.72;;;25.50;83.40;;;;;;10521406;28;20056;-34
2023/10/02 12:19:59;;;;;;;8.45;3.50;;;25.30;85.30;;;;;;10527047;28;20048;-38
2023/10/02 12:25:01;;;;;;;10.75;3.88;;;25.30;85.10;;;;;;10527276;28;20068;-35
2023/10/02 12:30:05;;;;;;;;;;;25.50;84.90;;;;;;10529329;28;20082;-32
2023/10/02 12:35:07;;;;;;;11.35;4.60;;;25.60;85.80;;;;;;10535557;28;19924;-33
2023/10/02 12:40:12;;;;;;;6.32;2.97;;;25.70;83.60;;;;;;10529918;28;20065;-38
2023/10/02 12:45:15;;;;;;;6.68;3.28;;;25.70;82.00;;;;;;10531030;28;20649;-35
2023/10/02 12:50:18;;;;;;;6.22;3.15;;;25.80;82.70;;;;;;10537716;28;20625;-39
2023/10/02 12:55:20;;;;;;;5.97;2.97;;;25.90;83.30;;;;;;10526981;28;20048;-38
2023/10/02 13:00:24;;;;;;;;;;;26.00;80.60;;;;;;10530885;28;20124;-36
2023/10/02 13:05:26;;;;;;;14.82;5.93;;;26.00;85.10;;;;;;10525817;28;19920;-36
2023/10/02 13:10:28;;;;;;;9.60;4.20;;;26.10;87.00;;;;;;10532622;28;20124;-45
2023/10/02 13:15:33;;;;;;;;;;;26.10;82.90;;;;;;10542506;28;20056;-38
2023/10/02 13:20:35;;;;;;;9.38;3.53;;;26.10;81.40;;;;;;10535268;28;19951;-30
2023/10/02 13:25:42;;;;;;;12.35;4.72;;;26.30;82.00;;;;;;10529651;28;20048;-42
2023/10/02 13:30:45;;;;;;;8.43;3.55;;;26.30;83.10;;;;;;10514978;28;20637;-31
2023/10/02 13:35:49;;;;;;;9.90;4.13;;;26.50;80.90;;;;;;10513175;28;20050;-39
2023/10/02 13:40:51;;;;;;;8.27;3.80;;;26.70;82.40;;;;;;10526299;28;20508;-37
2023/10/02 13:45:54;;;;;;;22.77;8.35;;;26.80;79.40;;;;;;10517511;28;20056;-41
2023/10/02 13:50:56;;;;;;;8.02;3.97;;;26.80;82.10;;;;;;10510963;28;20502;-44
2023/10/02 13:56:03;;;;;;;10.63;3.88;;;26.80;80.90;;;;;;10504265;28;20052;-41
2023/10/02 14:01:06;;;;;;;8.73;3.70;;;26.80;79.10;;;;;;10525232;28;20136;-38
2023/10/02 14:06:10;;;;;;;15.70;6.47;;;26.80;78.40;;;;;;10524433;28;20131;-45
2023/10/02 14:11:17;;;;;;;21.75;6.28;;;27.40;83.80;;;;;;10512687;28;20043;-41
2023/10/02 14:16:21;;;;;;;16.67;7.60;;;27.50;76.60;;;;;;10528231;28;20058;-33
2023/10/02 14:21:25;;;;;;;9.25;3.88;;;27.60;81.50;;;;;;10530081;28;20063;-38
2023/10/02 14:26:28;;;;;;;17.52;7.18;;;27.70;76.10;;;;;;10523220;28;20485;-31
2023/10/02 14:31:31;;;;;;;6.38;3.67;;;27.90;78.80;;;;;;10519297;28;20037;-34
2023/10/02 14:36:33;;;;;;;20.60;7.63;;;27.80;74.10;;;;;;10530091;28;20051;-36
2023/10/02 14:41:37;;;;;;;21.67;7.57;;;28.10;77.30;;;;;;10528549;28;21166;-38
2023/10/02 14:46:40;;;;;;;13.05;5.40;;;28.20;75.70;;;;;;10530854;28;20082;-37
2023/10/02 14:51:44;;;;;;;8.43;3.95;;;28.30;76.60;;;;;;10522255;28;20052;-34
2023/10/02 14:56:46;;;;;;;12.35;5.82;;;28.00;72.80;;;;;;10513755;28;20048;-38
2023/10/02 15:01:49;;;;;;;22.38;10.40;;;28.60;72.80;;;;;;10515240;28;20052;-42
2023/10/02 15:06:52;;;;;;;21.30;8.63;;;28.90;73.80;;;;;;10517943;28;20508;-39
2023/10/02 15:11:54;;;;;;;20.80;8.57;;;29.10;71.60;;;;;;10527816;28;20446;-41
2023/10/02 15:16:57;;;;;;;12.98;5.20;;;28.50;72.50;;;;;;10515937;28;20483;-32
2023/10/02 15:22:01;;;;;;;15.30;6.63;;;28.50;71.50;;;;;;10527589;28;20040;-41
2023/10/02 15:27:02;;;;;;;12.13;4.65;;;28.90;72.60;;;;;;10511649;28;20048;-39
2023/10/02 15:32:09;;;;;;;10.88;5.07;;;29.00;69.50;;;;;;10525403;28;20557;-31
2023/10/02 15:37:11;;;;;;;11.82;5.10;;;28.90;71.20;;;;;;10508834;28;20040;-34
2023/10/02 15:42:16;;;;;;;9.98;4.90;;;28.60;71.80;;;;;;10521477;28;20497;-40
2023/10/02 15:47:20;;;;;;;11.25;5.72;;;28.30;72.00;;;;;;10514980;28;20649;-39
2023/10/02 15:52:23;;;;;;;10.38;4.75;;;28.30;72.70;;;;;;10522812;28;20044;-41
2023/10/02 15:57:26;;;;;;;10.05;4.90;;;28.20;72.50;;;;;;10518160;28;20052;-37
2023/10/02 16:02:31;;;;;;;11.10;5.45;;;28.20;73.10;;;;;;10516617;28;20048;-43
2023/10/02 16:07:36;;;;;;;12.32;5.50;;;28.20;72.70;;;;;;10526013;28;20544;-47
2023/10/02 16:12:39;;;;;;;12.98;5.85;;;28.20;72.50;;;;;;10525739;28;20996;-59
2023/10/02 16:17:46;;;;;;;8.60;5.25;;;28.20;74.10;;;;;;10521914;28;20048;-35
2023/10/02 16:22:53;;;;;;;12.77;5.25;;;28.10;73.20;;;;;;10531336;28;20283;-38
2023/10/02 16:27:57;;;;;;;15.15;5.45;;;28.00;73.40;;;;;;10519529;28;20707;-40
2023/10/02 16:33:01;;;;;;;13.32;5.88;;;28.10;73.20;;;;;;10512536;28;20056;-40
2023/10/02 16:38:10;;;;;;;11.52;5.30;;;28.00;73.70;;;;;;10508010;28;20143;-36
2023/10/02 16:43:12;;;;;;;12.43;5.90;;;27.90;74.10;;;;;;10533042;28;20067;-48
2023/10/02 16:48:16;;;;;;;13.02;5.28;;;27.80;74.60;;;;;;10521768;28;20397;-40
2023/10/02 16:53:19;;;;;;;13.13;6.03;;;27.80;75.00;;;;;;10515139;28;20052;-38
2023/10/02 16:58:21;;;;;;;15.20;5.65;;;27.80;75.30;;;;;;10523964;28;20044;-37
2023/10/02 17:03:25;;;;;;;12.70;5.55;;;27.70;75.40;;;;;;10520411;28;20044;-35
2023/10/02 17:08:28;;;;;;;14.32;5.82;;;27.70;75.50;;;;;;10513623;28;20059;-32
2023/10/02 17:13:30;;;;;;;22.42;8.73;;;27.60;75.60;;;;;;10521067;28;20040;-37
2023/10/02 17:18:34;;;;;;;35.63;12.27;;;27.30;80.40;;;;;;10515666;28;20072;-39
2023/10/02 17:23:37;;;;;;;21.98;7.97;;;26.40;88.00;;;;;;10524778;28;20485;-41
2023/10/02 17:28:39;;;;;;;15.48;6.03;;;24.60;95.40;;;;;;10532274;28;20478;-38
2023/10/02 17:33:43;;;;;;;23.52;8.30;;;26.30;90.20;;;;;;10527102;28;20094;-35
2023/10/02 17:38:45;;;;;;;15.98;6.10;;;26.50;87.20;;;;;;10528939;28;20055;-40
2023/10/02 17:43:48;;;;;;;18.83;7.32;;;26.80;85.10;;;;;;10523218;28;20144;-44
2023/10/02 17:48:53;;;;;;;14.15;5.78;;;27.00;84.70;;;;;;10527377;28;20140;-38
2023/10/02 17:53:57;;;;;;;15.77;6.13;;;27.10;83.30;;;;;;10527264;28;20097;-36
2023/10/02 17:58:59;;;;;;;16.23;6.05;;;27.10;83.30;;;;;;10518590;28;20052;-39
2023/10/02 18:04:03;;;;;;;17.48;5.65;;;27.10;83.30;;;;;;10522178;28;20143;-42
2023/10/02 18:09:06;;;;;;;14.60;5.88;;;27.10;83.30;;;;;;10520790;28;20072;-36
2023/10/02 18:14:09;;;;;;;14.05;5.68;;;27.10;83.50;;;;;;10528196;28;20067;-38
2023/10/02 18:19:13;;;;;;;13.05;5.63;;;27.00;83.90;;;;;;10516800;28;20114;-32
2023/10/02 18:24:15;;;;;;;17.73;6.00;;;27.00;83.70;;;;;;10526720;28;20051;-32
2023/10/02 18:29:17;;;;;;;13.32;5.32;;;27.00;83.80;;;;;;10527460;28;20090;-39
2023/10/02 18:34:20;;;;;;;14.45;5.47;;;27.00;83.80;;;;;;10524453;28;20490;-35
2023/10/02 18:39:26;;;;;;;10.60;5.07;;;26.90;84.10;;;;;;10519661;28;20059;-45
2023/10/02 18:44:27;;;;;;;16.73;6.28;;;26.90;84.10;;;;;;10533395;28;20386;-37
2023/10/02 18:49:33;;;;;;;15.23;5.07;;;26.90;84.40;;;;;;10524932;28;20765;-30
2023/10/02 18:54:35;;;;;;;18.88;5.28;;;26.80;84.50;;;;;;10528315;28;20118;-31
2023/10/02 18:59:40;;;;;;;22.02;6.95;;;26.80;84.60;;;;;;10525547;28;20048;-38
2023/10/02 19:04:43;;;;;;;22.45;6.38;;;26.80;84.70;;;;;;10518341;28;20056;-45
2023/10/02 19:09:45;;;;;;;17.88;5.70;;;26.80;84.50;;;;;;10515530;28;20192;-40
2023/10/02 19:14:48;;;;;;;23.55;7.60;;;26.80;84.50;;;;;;10527792;28;20060;-39
2023/10/02 19:19:53;;;;;;;32.33;6.53;;;26.80;84.90;;;;;;10533238;28;20480;-34
2023/10/02 19:24:55;;;;;;;26.67;7.03;;;26.80;85.10;;;;;;10514805;28;20099;-38
2023/10/02 19:29:57;;;;;;;20.77;5.72;;;26.80;84.80;;;;;;10523676;28;20040;-32
2023/10/02 19:35:02;;;;;;;21.80;7.20;;;26.70;84.60;;;;;;10519249;28;20098;-37
2023/10/02 19:40:05;;;;;;;24.20;6.25;;;26.70;84.60;;;;;;10516362;28;20067;-34
2023/10/02 19:45:08;;;;;;;18.38;5.22;;;26.70;84.60;;;;;;10517679;28;20106;-32
2023/10/02 19:50:14;;;;;;;21.27;6.45;;;26.60;84.60;;;;;;10520605;28;20052;-40
2023/10/02 19:55:19;;;;;;;21.85;5.85;;;26.60;84.60;;;;;;10512320;28;20523;-42
2023/10/02 20:00:21;;;;;;;19.92;4.85;;;26.60;84.70;;;;;;10526105;28;20044;-33
2023/10/02 20:05:25;;;;;;;17.70;5.82;;;26.60;84.50;;;;;;10517497;28;20481;-45
2023/10/02 20:10:28;;;;;;;16.85;5.03;;;26.60;84.60;;;;;;10529103;28;20047;-34
2023/10/02 20:15:30;;;;;;;14.90;5.05;;;26.60;84.50;;;;;;10528889;28;20063;-35
2023/10/02 20:20:34;;;;;;;20.67;5.15;;;26.50;84.50;;;;;;10523228;28;20873;-41
2023/10/02 20:25:37;;;;;;;14.20;4.38;;;26.50;84.60;;;;;;10532013;28;20119;-34
2023/10/02 20:30:40;;;;;;;12.75;4.32;;;26.50;84.50;;;;;;10527552;28;20056;-36
2023/10/02 20:35:44;;;;;;;14.20;4.63;;;26.50;84.60;;;;;;10536506;28;20083;-35
2023/10/02 20:40:46;;;;;;;10.40;4.20;;;26.40;84.70;;;;;;10524738;28;20048;-38
2023/10/02 20:45:48;;;;;;;13.93;4.28;;;26.40;84.80;;;;;;10530180;28;20640;-34
2023/10/02 20:50:52;;;;;;;15.23;5.20;;;26.40;84.80;;;;;;10531445;28;20052;-35
2023/10/02 20:55:54;;;;;;;13.35;4.53;;;26.40;84.90;;;;;;10536080;28;20676;-35
2023/10/02 21:00:56;;;;;;;11.65;3.85;;;26.30;85.00;;;;;;10533201;28;20115;-33
2023/10/02 21:06:03;;;;;;;13.60;4.13;;;26.30;84.90;;;;;;10524893;28;20052;-36
2023/10/02 21:11:07;;;;;;;10.10;4.35;;;26.30;85.00;;;;;;10521660;28;20048;-34
2023/10/02 21:16:14;;;;;;;8.27;4.00;;;26.30;85.20;;;;;;10524347;28;20055;-46
2023/10/02 21:21:17;;;;;;;8.90;3.80;;;26.30;85.70;;;;;;10538723;28;20094;-46
2023/10/02 21:26:19;;;;;;;7.85;3.40;;;26.30;85.00;;;;;;10522054;28;20669;-36
2023/10/02 21:31:21;;;;;;;9.82;4.57;;;26.30;85.20;;;;;;10511573;28;20113;-39
2023/10/02 21:36:26;;;;;;;8.63;3.70;;;26.20;85.10;;;;;;10523987;28;20083;-41
2023/10/02 21:41:27;;;;;;;11.50;4.25;;;26.20;85.20;;;;;;10521183;28;20558;-39
2023/10/02 21:46:29;;;;;;;8.10;3.88;;;26.20;85.30;;;;;;10507985;28;20040;-41
2023/10/02 21:51:33;;;;;;;;;;;26.20;85.30;;;;;;10522096;28;20064;-36
2023/10/02 21:56:36;;;;;;;10.05;3.90;;;26.10;85.40;;;;;;10517327;28;19966;-42
2023/10/02 22:01:38;;;;;;;8.93;4.47;;;26.10;85.30;;;;;;10512335;28;20139;-39
2023/10/02 22:06:41;;;;;;;8.55;3.85;;;26.10;85.40;;;;;;10517297;28;20043;-36
2023/10/02 22:11:43;;;;;;;9.55;4.95;;;26.10;85.40;;;;;;10517137;28;20125;-44
2023/10/02 22:16:45;;;;;;;9.15;5.00;;;26.10;85.40;;;;;;10528501;28;20117;-34
2023/10/02 22:21:49;;;;;;;9.80;4.40;;;26.00;85.70;;;;;;10527354;28;21319;-36
2023/10/02 22:26:52;;;;;;;9.98;4.80;;;25.90;85.50;;;;;;10523270;28;20047;-44
2023/10/02 22:31:53;;;;;;;11.25;5.13;;;25.90;85.50;;;;;;10531068;28;20044;-35
2023/10/02 22:36:56;;;;;;;;;;;25.90;85.70;;;;;;10522726;28;20097;-32
2023/10/02 22:41:59;;;;;;;15.55;5.85;;;25.90;85.70;;;;;;10529639;28;20322;-35
2023/10/02 22:47:01;;;;;;;11.80;5.85;;;25.80;85.50;;;;;;10524120;28;20075;-41
2023/10/02 22:52:06;;;;;;;18.80;6.90;;;25.80;85.80;;;;;;10512713;28;20483;-41
2023/10/02 22:57:08;;;;;;;13.80;6.90;;;25.70;85.70;;;;;;10514662;28;20055;-37
2023/10/02 23:02:09;;;;;;;11.88;6.25;;;25.70;85.70;;;;;;10524860;28;20044;-37
2023/10/02 23:07:12;;;;;;;;;;;25.70;85.60;;;;;;10528868;28;20138;-33
2023/10/02 23:12:14;;;;;;;20.25;6.93;;;25.60;85.60;;;;;;10511521;28;19920;-31
2023/10/02 23:17:17;;;;;;;;;;;25.60;85.60;;;;;;10532371;28;20139;-38
2023/10/02 23:22:22;;;;;;;16.85;7.63;;;25.60;85.40;;;;;;10530045;28;20318;-38
2023/10/02 23:27:24;;;;;;;17.02;7.38;;;25.60;85.10;;;;;;10535835;28;20054;-38
2023/10/02 23:32:26;;;;;;;;;;;25.60;85.20;;;;;;10545005;28;20048;-43
2023/10/02 23:37:30;;;;;;;15.68;7.72;;;25.50;85.60;;;;;;10535580;28;19960;-39
2023/10/02 23:42:32;;;;;;;22.08;9.43;;;25.50;85.20;;;;;;10540338;28;20040;-38
2023/10/02 23:47:36;;;;;;;22.35;9.35;;;25.50;84.90;;;;;;10542917;28;20130;-43
2023/10/02 23:52:39;;;;;;;;;;;25.50;83.80;;;;;;10540132;28;20044;-43
2023/10/02 23:57:42;;;;;;;19.27;7.72;;;25.50;85.40;;;;;;10539886;28;19990;-36
